Time;durP1;ratioP1;P1;durP2;ratioP2;P2;SDS_P1;SDS_P2;PMS_P1;PMS_P2;Temp;Humidity;BMP_temperature;BMP_pressure;BME280_temperature;BME280_humidity;BME280_pressure;Samples;Min_cycle;Max_cycle;Signal;HPM_P1;HPM_P2
2021/12/10 00:02:21;;;;;;;40.75;18.48;;;;;;;0.68;100.00;99648.50;5076510;28;20028;-79
2021/12/10 00:04:47;;;;;;;37.08;18.58;;;;;;;0.77;100.00;99650.00;5070361;28;20032;-80
2021/12/10 00:07:19;;;;;;;32.08;17.20;;;;;;;0.84;100.00;99638.44;5064291;28;20406;-79
2021/12/10 00:09:50;;;;;;;32.00;17.20;;;;;;;0.88;100.00;99634.78;5073654;28;20032;-79
2021/12/10 00:12:25;;;;;;;29.33;16.17;;;;;;;0.94;100.00;99637.25;5076712;28;20093;-80
2021/12/10 00:14:52;;;;;;;30.92;16.13;;;;;;;0.96;100.00;99631.06;5085584;28;20054;-79
2021/12/10 00:17:19;;;;;;;35.58;16.55;;;;;;;1.00;100.00;99623.94;5088238;28;20097;-79
2021/12/10 00:19:49;;;;;;;26.35;14.57;;;;;;;0.98;100.00;99618.75;5087746;28;20043;-79
2021/12/10 00:22:19;;;;;;;27.15;15.65;;;;;;;0.91;100.00;99598.88;5069984;28;20511;-79
2021/12/10 00:24:47;;;;;;;28.52;14.80;;;;;;;0.90;100.00;99604.19;5072312;28;20028;-79
2021/12/10 00:27:13;;;;;;;24.25;13.73;;;;;;;0.84;100.00;99594.78;5080990;28;20039;-79
2021/12/10 00:29:48;;;;;;;30.33;14.85;;;;;;;0.86;100.00;99597.31;5086373;28;20107;-79
2021/12/10 00:32:31;;;;;;;29.50;15.68;;;;;;;0.91;100.00;99592.78;5084517;28;20021;-79
2021/12/10 00:34:58;;;;;;;26.90;13.18;;;;;;;0.89;100.00;99569.28;5085345;28;20381;-79
2021/12/10 00:37:24;;;;;;;28.05;14.73;;;;;;;0.83;100.00;99553.75;5072098;28;20024;-79
2021/12/10 00:39:52;;;;;;;26.20;13.95;;;;;;;0.84;100.00;99549.38;5087493;28;20055;-79
2021/12/10 00:42:21;;;;;;;26.80;13.38;;;;;;;0.81;100.00;99558.19;5087747;28;20034;-79
2021/12/10 00:44:47;;;;;;;25.13;13.07;;;;;;;0.73;100.00;99541.84;5085107;28;20090;-79
2021/12/10 00:47:13;;;;;;;22.20;13.23;;;;;;;0.68;100.00;99531.53;5082388;28;20103;-79
2021/12/10 00:49:39;;;;;;;22.35;13.13;;;;;;;0.66;100.00;99529.84;5085209;28;20116;-79
2021/12/10 00:52:06;;;;;;;21.55;12.65;;;;;;;0.62;100.00;99530.84;5087290;28;20477;-79
2021/12/10 00:54:32;;;;;;;25.90;12.63;;;;;;;0.57;100.00;99527.53;5083551;28;20549;-80
2021/12/10 00:56:57;;;;;;;25.48;11.98;;;;;;;0.52;100.00;99517.19;5087791;28;20025;-80
2021/12/10 00:59:23;;;;;;;26.83;12.98;;;;;;;0.49;100.00;99526.00;5087334;28;20056;-80
2021/12/10 01:01:49;;;;;;;18.63;11.77;;;;;;;0.47;100.00;99513.88;5081070;28;20031;-79
2021/12/10 01:04:20;;;;;;;21.70;12.15;;;;;;;0.41;100.00;99507.03;5085760;28;20032;-79
2021/12/10 01:06:49;;;;;;;20.95;10.95;;;;;;;0.45;100.00;99499.97;5087926;28;20055;-80
2021/12/10 01:09:27;;;;;;;16.98;10.57;;;;;;;0.41;100.00;99493.94;5087424;28;20039;-80
2021/12/10 01:12:03;;;;;;;24.67;10.95;;;;;;;0.30;100.00;99469.03;5074199;28;20585;-80
2021/12/10 01:14:52;;;;;;;21.65;11.00;;;;;;;0.45;100.00;99477.25;5060891;28;20024;-80
2021/12/10 01:25:40;;;;;;;;;;;;;;;0.46;100.00;99437.09;5086822;28;20050;-80
2021/12/10 01:28:08;;;;;;;27.33;10.60;;;;;;;0.43;100.00;99425.88;5083319;28;19968;-79
2021/12/10 01:30:37;;;;;;;29.35;11.32;;;;;;;0.46;100.00;99431.88;5083473;28;20044;-79
2021/12/10 01:33:08;;;;;;;24.77;10.55;;;;;;;0.46;100.00;99421.41;5075298;28;20028;-80
2021/12/10 01:35:38;;;;;;;18.25;9.70;;;;;;;0.54;100.00;99415.03;5080081;28;20384;-80
2021/12/10 01:38:06;;;;;;;17.95;9.15;;;;;;;0.59;100.00;99405.28;5075117;28;20493;-80
2021/12/10 01:40:32;;;;;;;16.15;9.32;;;;;;;0.59;100.00;99402.66;5090790;28;20393;-78
2021/12/10 01:43:06;;;;;;;18.98;8.55;;;;;;;0.64;100.00;99403.38;5071423;28;20028;-78
2021/12/10 01:45:33;;;;;;;;;;;;;;;0.67;100.00;99388.41;5088110;28;20516;-78
2021/12/10 01:48:03;;;;;;;18.77;8.82;;;;;;;0.62;100.00;99389.44;5090874;28;19951;-79
2021/12/10 01:50:29;;;;;;;14.82;8.63;;;;;;;0.64;100.00;99388.50;5080434;28;20473;-79
2021/12/10 01:52:58;;;;;;;13.43;8.85;;;;;;;0.65;100.00;99384.13;5074254;28;20040;-78
2021/12/10 01:55:27;;;;;;;16.65;8.23;;;;;;;0.60;100.00;99367.72;5076149;28;20033;-78
2021/12/10 01:57:54;;;;;;;15.02;8.05;;;;;;;0.66;100.00;99386.69;5073101;28;20036;-79
2021/12/10 02:00:22;;;;;;;19.58;7.38;;;;;;;0.68;100.00;99381.41;5078246;28;20024;-78
2021/12/10 02:02:49;;;;;;;16.02;7.85;;;;;;;0.69;100.00;99372.63;5075574;28;20063;-78
2021/12/10 02:05:17;;;;;;;14.30;6.82;;;;;;;0.69;100.00;99367.41;5080054;28;20112;-78
2021/12/10 02:07:43;;;;;;;14.32;7.13;;;;;;;0.69;99.97;99364.78;5078856;28;20025;-78
2021/12/10 02:10:10;;;;;;;14.38;6.53;;;;;;;0.72;99.94;99360.31;5085751;28;20028;-78
2021/12/10 02:12:35;;;;;;;13.88;6.22;;;;;;;0.70;99.48;99356.00;5073463;28;20389;-78
2021/12/10 02:15:03;;;;;;;15.25;6.50;;;;;;;0.75;99.28;99359.31;5088076;28;20020;-78
2021/12/10 02:17:39;;;;;;;11.32;6.22;;;;;;;0.73;99.43;99341.06;5081433;28;20115;-79
2021/12/10 02:20:09;;;;;;;10.98;5.72;;;;;;;0.73;99.22;99346.28;5088471;28;20381;-78
2021/12/10 02:22:35;;;;;;;15.70;6.07;;;;;;;0.73;99.01;99333.19;5090666;28;20020;-78
2021/12/10 02:25:02;;;;;;;9.07;5.82;;;;;;;0.72;99.11;99330.63;5087207;28;20026;-78
2021/12/10 02:27:27;;;;;;;11.13;5.70;;;;;;;0.69;99.22;99323.72;5088784;28;20122;-78
2021/12/10 02:29:52;;;;;;;11.55;5.85;;;;;;;0.69;99.01;99318.50;5089704;28;20513;-79
2021/12/10 02:32:18;;;;;;;11.45;5.53;;;;;;;0.71;99.09;99315.81;5072720;28;20025;-78
2021/12/10 02:34:44;;;;;;;12.02;5.63;;;;;;;0.59;99.04;99274.38;5082875;28;20032;-78
2021/12/10 02:37:10;;;;;;;10.27;5.63;;;;;;;0.70;99.04;99288.78;5086974;28;20058;-79
2021/12/10 02:39:36;;;;;;;10.63;5.40;;;;;;;0.73;98.59;99283.44;5089629;28;20465;-79
2021/12/10 02:42:02;;;;;;;10.43;5.35;;;;;;;0.72;98.65;99286.13;5088588;28;20092;-79
2021/12/10 02:44:30;;;;;;;11.73;5.32;;;;;;;0.78;98.30;99285.88;5088392;28;20024;-79
2021/12/10 02:46:56;;;;;;;8.38;5.10;;;;;;;0.72;98.07;99265.16;5084717;28;20388;-79
2021/12/10 02:49:22;;;;;;;11.57;5.57;;;;;;;0.75;98.22;99270.28;5088598;28;20040;-79
2021/12/10 02:51:48;;;;;;;12.23;4.75;;;;;;;0.79;97.83;99271.88;5089115;28;20039;-79
2021/12/10 02:54:20;;;;;;;14.13;4.50;;;;;;;0.77;97.96;99260.63;5087038;28;20035;-79
2021/12/10 02:56:46;;;;;;;9.90;5.00;;;;;;;0.74;97.72;99247.63;5086117;28;20377;-80
2021/12/10 02:59:11;;;;;;;8.15;3.97;;;;;;;0.72;97.29;99234.59;5085093;28;20025;-79
2021/12/10 03:01:39;;;;;;;11.27;4.85;;;;;;;0.83;97.45;99251.66;5074820;28;20509;-79
2021/12/10 03:04:07;;;;;;;8.90;4.57;;;;;;;0.78;97.42;99236.13;5075310;28;20596;-79
2021/12/10 03:06:36;;;;;;;7.68;5.10;;;;;;;0.81;97.12;99240.41;5083070;28;20028;-79
2021/12/10 03:09:03;;;;;;;11.68;4.90;;;;;;;0.73;97.14;99236.31;5088640;28;20111;-79
2021/12/10 03:11:34;;;;;;;10.50;4.95;;;;;;;0.76;97.44;99232.72;5088670;28;20023;-79
2021/12/10 03:14:05;;;;;;;8.55;4.60;;;;;;;0.69;96.91;99229.47;5080090;28;20031;-80
2021/12/10 03:16:32;;;;;;;11.27;4.63;;;;;;;0.73;97.26;99217.97;5069596;28;20035;-79
2021/12/10 03:18:57;;;;;;;8.07;4.50;;;;;;;0.70;97.00;99222.47;5088124;28;20485;-80
2021/12/10 03:21:22;;;;;;;9.90;4.80;;;;;;;0.70;97.12;99214.59;5089145;28;20080;-80
2021/12/10 03:23:49;;;;;;;14.93;5.35;;;;;;;0.69;97.46;99219.00;5087507;28;20028;-80
2021/12/10 03:26:21;;;;;;;10.73;4.75;;;;;;;0.68;96.92;99226.91;5078400;28;20035;-79
2021/12/10 03:28:48;;;;;;;8.10;4.60;;;;;;;0.64;97.14;99210.44;5074109;28;20020;-80
2021/12/10 03:31:14;;;;;;;10.70;5.35;;;;;;;0.60;97.50;99210.63;5084692;28;20608;-79
2021/12/10 03:33:41;;;;;;;11.48;5.13;;;;;;;0.59;97.72;99206.31;5078611;28;20020;-79
2021/12/10 03:36:08;;;;;;;14.77;5.90;;;;;;;0.60;97.57;99208.00;5088868;28;20020;-79
2021/12/10 03:38:36;;;;;;;9.88;5.15;;;;;;;0.57;97.29;99198.50;5088345;28;20035;-79
2021/12/10 03:41:02;;;;;;;13.57;5.40;;;;;;;0.62;97.45;99198.31;5088127;28;20046;-79
2021/12/10 03:43:28;;;;;;;10.43;4.78;;;;;;;0.65;97.07;99188.59;5087370;28;20039;-79
2021/12/10 03:45:57;;;;;;;14.52;5.60;;;;;;;0.67;96.88;99178.03;5087483;28;20023;-79
2021/12/10 03:48:27;;;;;;;12.70;5.25;;;;;;;0.66;97.11;99178.97;5086427;28;20493;-79
2021/12/10 03:50:54;;;;;;;11.15;5.22;;;;;;;0.71;96.99;99174.41;5086320;28;20024;-79
2021/12/10 03:53:20;;;;;;;7.68;4.50;;;;;;;0.69;97.08;99165.78;5085915;28;20028;-79
2021/12/10 03:55:47;;;;;;;11.57;4.78;;;;;;;0.75;97.27;99178.63;5088402;28;20031;-79
2021/12/10 03:58:14;;;;;;;9.48;4.80;;;;;;;0.72;96.82;99158.66;5087954;28;20508;-79
2021/12/10 04:00:47;;;;;;;8.05;4.60;;;;;;;0.82;96.92;99166.16;5086680;28;20058;-79
2021/12/10 04:03:15;;;;;;;9.93;5.50;;;;;;;0.78;97.39;99154.94;5080104;28;20036;-80
2021/12/10 04:05:40;;;;;;;10.25;4.72;;;;;;;0.84;97.76;99154.72;5088045;28;20110;-80
2021/12/10 04:08:06;;;;;;;10.52;4.75;;;;;;;0.83;97.20;99150.38;5086653;28;20112;-79
2021/12/10 04:10:32;;;;;;;11.90;4.60;;;;;;;0.87;97.29;99146.72;5077702;28;20032;-79
2021/12/10 04:12:58;;;;;;;7.25;3.92;;;;;;;0.84;96.94;99133.78;5076112;28;20477;-80
2021/12/10 04:15:24;;;;;;;8.68;4.50;;;;;;;0.89;96.72;99131.81;5088135;28;20128;-79
2021/12/10 04:17:52;;;;;;;12.45;4.22;;;;;;;0.92;96.31;99122.97;5087355;28;20040;-79
2021/12/10 04:20:19;;;;;;;11.43;3.88;;;;;;;0.93;95.72;99125.56;5084910;28;20046;-79
2021/12/10 04:22:46;;;;;;;10.75;4.97;;;;;;;0.93;96.42;99117.69;5080254;28;20137;-79
2021/12/10 04:25:14;;;;;;;12.05;3.70;;;;;;;0.99;96.11;99116.59;5079342;28;20028;-79
2021/12/10 04:27:40;;;;;;;10.88;3.60;;;;;;;0.97;95.74;99108.81;5068149;28;20031;-79
2021/12/10 04:30:06;;;;;;;9.20;4.03;;;;;;;1.03;95.80;99110.31;5081565;28;20017;-79
2021/12/10 04:32:32;;;;;;;7.10;3.60;;;;;;;1.05;94.94;99094.56;5077735;28;20028;-79
2021/12/10 04:34:57;;;;;;;7.80;3.28;;;;;;;1.08;95.24;99084.78;5086240;28;20523;-79
2021/12/10 04:37:23;;;;;;;10.93;3.30;;;;;;;1.05;95.10;99084.91;5085583;28;20028;-79
2021/12/10 04:39:48;;;;;;;10.00;3.20;;;;;;;1.08;94.49;99078.69;5084776;28;20020;-79
2021/12/10 04:42:17;;;;;;;8.57;2.90;;;;;;;1.12;94.42;99080.28;5079729;28;20029;-79
2021/12/10 04:44:43;;;;;;;7.43;2.90;;;;;;;1.13;94.21;99071.47;5076971;28;20035;-80
2021/12/10 04:47:09;;;;;;;11.27;3.40;;;;;;;1.15;93.89;99051.31;5081880;28;20398;-79
2021/12/10 04:49:35;;;;;;;10.25;3.40;;;;;;;1.13;93.65;99040.91;5088010;28;20016;-79
2021/12/10 04:52:02;;;;;;;9.15;3.50;;;;;;;1.19;93.28;99038.03;5086408;28;20034;-80
2021/12/10 04:54:27;;;;;;;7.63;4.30;;;;;;;1.21;92.96;99032.72;5085228;28;20056;-79
2021/12/10 04:56:57;;;;;;;8.82;3.92;;;;;;;1.21;92.78;99030.97;5077556;28;20063;-78
2021/12/10 04:59:24;;;;;;;6.72;3.63;;;;;;;1.24;92.82;99027.34;5083427;28;20512;-78
2021/12/10 05:01:53;;;;;;;8.35;3.90;;;;;;;1.24;92.99;99019.50;5077160;28;20031;-78
2021/12/10 05:04:19;;;;;;;11.55;4.65;;;;;;;1.24;93.57;99011.63;5086083;28;20034;-78
2021/12/10 05:06:44;;;;;;;11.35;4.60;;;;;;;1.24;93.75;99016.88;5087912;28;20423;-79
2021/12/10 05:09:12;;;;;;;12.40;5.15;;;;;;;1.20;94.31;99010.06;5086811;28;20028;-79
2021/12/10 05:11:37;;;;;;;7.13;4.30;;;;;;;1.20;94.00;99005.66;5085775;28;20093;-78
2021/12/10 05:14:03;;;;;;;8.68;4.80;;;;;;;1.18;93.81;99010.13;5077258;28;20434;-79
2021/12/10 05:16:29;;;;;;;9.88;5.18;;;;;;;1.15;93.96;98991.91;5091924;28;20028;-79
2021/12/10 05:18:59;;;;;;;12.68;5.07;;;;;;;1.17;94.65;98997.94;5089935;28;20079;-79
2021/12/10 05:21:28;;;;;;;11.38;4.75;;;;;;;1.14;94.34;98992.84;5074269;28;20075;-78
2021/12/10 05:23:54;;;;;;;10.80;4.68;;;;;;;1.15;94.26;98989.28;5089083;28;20129;-79
2021/12/10 05:26:20;;;;;;;14.50;4.72;;;;;;;1.16;93.85;98977.03;5090860;28;20036;-79
2021/12/10 05:28:45;;;;;;;9.60;4.53;;;;;;;1.22;94.04;98982.88;5090131;28;20024;-78
2021/12/10 05:31:11;;;;;;;12.50;4.20;;;;;;;1.24;93.34;98975.78;5089519;28;20035;-79
2021/12/10 05:33:36;;;;;;;11.55;5.00;;;;;;;1.21;93.53;98975.94;5084823;28;20112;-79
2021/12/10 05:36:02;;;;;;;9.85;4.70;;;;;;;1.21;93.66;98968.09;5090484;28;20024;-79
2021/12/10 05:38:29;;;;;;;7.85;4.22;;;;;;;1.27;93.38;98969.56;5091194;28;20477;-78
2021/12/10 05:40:55;;;;;;;11.73;4.40;;;;;;;1.31;93.19;98978.16;5090825;28;20477;-78
2021/12/10 05:43:21;;;;;;;8.82;4.13;;;;;;;1.27;93.00;98963.50;5089355;28;20562;-79
2021/12/10 05:45:48;;;;;;;7.13;3.90;;;;;;;1.33;93.39;98961.44;5081804;28;20020;-78
2021/12/10 05:48:14;;;;;;;9.65;3.95;;;;;;;1.30;92.78;98958.97;5086955;28;20064;-78
2021/12/10 05:50:40;;;;;;;8.30;3.78;;;;;;;1.34;92.99;98960.53;5090616;28;20059;-78
2021/12/10 05:53:06;;;;;;;9.77;4.05;;;;;;;1.37;93.07;98960.38;5088566;28;20142;-78
2021/12/10 05:55:32;;;;;;;8.32;3.60;;;;;;;1.31;92.83;98950.19;5072316;28;20024;-78
2021/12/10 05:57:59;;;;;;;6.95;3.10;;;;;;;1.38;92.37;98950.75;5086489;28;20533;-79
2021/12/10 06:00:35;;;;;;;12.55;5.25;;;;;;;1.37;92.66;98955.13;5081315;28;20036;-79
2021/12/10 06:03:01;;;;;;;10.43;4.10;;;;;;;1.37;93.04;98949.91;5080865;28;20024;-79
2021/12/10 06:05:28;;;;;;;9.48;3.58;;;;;;;1.40;92.47;98948.94;5091048;28;20030;-79
2021/12/10 06:07:53;;;;;;;12.10;3.63;;;;;;;1.40;92.46;98943.69;5090474;28;20366;-78
2021/12/10 06:10:21;;;;;;;7.63;3.33;;;;;;;1.40;92.30;98938.44;5089604;28;20164;-79
2021/12/10 06:12:47;;;;;;;8.50;3.33;;;;;;;1.38;92.20;98945.50;5086744;28;20115;-78
2021/12/10 06:15:15;;;;;;;9.15;3.53;;;;;;;1.39;92.05;98945.47;5087477;28;20024;-79
2021/12/10 06:17:42;;;;;;;10.50;4.10;;;;;;;1.39;92.01;98937.59;5087393;28;20073;-79
2021/12/10 06:20:10;;;;;;;11.15;3.95;;;;;;;1.41;92.25;98943.59;5088476;28;20382;-78
2021/12/10 06:22:36;;;;;;;5.82;2.92;;;;;;;1.36;92.00;98929.00;5087715;28;20499;-79
2021/12/10 06:25:02;;;;;;;10.65;4.03;;;;;;;1.45;92.07;98937.31;5089810;28;20408;-79
2021/12/10 06:27:28;;;;;;;9.80;4.30;;;;;;;1.45;92.28;98932.06;5089419;28;20024;-78
2021/12/10 06:29:53;;;;;;;9.30;3.30;;;;;;;1.45;91.66;98934.69;5089278;28;20047;-78
2021/12/10 06:32:18;;;;;;;8.80;3.60;;;;;;;1.49;92.29;98933.63;5084602;28;20460;-79
2021/12/10 06:34:44;;;;;;;11.60;3.40;;;;;;;1.48;92.33;98931.94;5085669;28;20107;-79
2021/12/10 06:37:09;;;;;;;8.20;3.30;;;;;;;1.44;92.20;98925.13;5080940;28;20093;-79
2021/12/10 06:39:35;;;;;;;8.20;3.40;;;;;;;1.46;92.21;98922.44;5090297;28;20030;-79
2021/12/10 06:42:00;;;;;;;7.90;2.85;;;;;;;1.45;92.36;98931.22;5084637;28;20473;-79
2021/12/10 06:44:26;;;;;;;10.35;3.35;;;;;;;1.47;92.29;98935.50;5073560;28;20012;-79
2021/12/10 06:46:52;;;;;;;6.00;2.90;;;;;;;1.45;92.50;98929.44;5080192;28;20032;-79
2021/12/10 06:49:18;;;;;;;6.97;3.45;;;;;;;1.46;92.42;98930.28;5082198;28;20473;-79
2021/12/10 06:51:44;;;;;;;17.77;3.92;;;;;;;1.46;92.35;98936.41;5080646;28;20057;-79
2021/12/10 06:54:09;;;;;;;6.40;3.40;;;;;;;1.46;92.49;98930.28;5082538;28;20024;-79
2021/12/10 06:56:36;;;;;;;9.40;3.13;;;;;;;1.44;92.39;98924.28;5085400;28;20062;-79
2021/12/10 06:59:04;;;;;;;9.13;2.85;;;;;;;1.46;92.67;98928.56;5077014;28;20035;-79
2021/12/10 07:01:33;;;;;;;12.43;2.97;;;;;;;1.45;92.55;98937.31;5077415;28;20094;-79
2021/12/10 07:04:00;;;;;;;5.68;3.10;;;;;;;1.43;92.70;98935.69;5071542;28;20025;-79
2021/12/10 07:06:27;;;;;;;6.25;2.75;;;;;;;1.42;92.46;98942.72;5078830;28;20393;-78
2021/12/10 07:08:53;;;;;;;9.25;3.08;;;;;;;1.43;92.46;98938.31;5080413;28;20381;-78
2021/12/10 07:11:20;;;;;;;8.82;2.90;;;;;;;1.40;92.64;98938.44;5075045;28;20385;-78
2021/12/10 07:13:50;;;;;;;7.55;2.88;;;;;;;1.45;92.15;98942.56;5075861;28;20107;-78
2021/12/10 07:16:17;;;;;;;7.88;3.15;;;;;;;1.47;92.24;98943.34;5087930;28;20069;-79
2021/12/10 07:18:43;;;;;;;7.75;3.42;;;;;;;1.48;92.30;98939.81;5078677;28;20052;-78
2021/12/10 07:21:09;;;;;;;4.55;2.50;;;;;;;1.49;91.97;98941.50;5080963;28;20029;-79
2021/12/10 07:23:37;;;;;;;9.07;3.30;;;;;;;1.43;92.30;98927.84;5078421;28;20401;-79
2021/12/10 07:26:02;;;;;;;11.35;2.70;;;;;;;1.43;92.13;98925.22;5079586;28;20064;-80
2021/12/10 07:28:28;;;;;;;8.27;2.83;;;;;;;1.51;92.41;98941.44;5079012;28;20064;-79
2021/12/10 07:30:53;;;;;;;8.23;2.85;;;;;;;1.54;92.01;98940.44;5083939;28;20047;-79
2021/12/10 07:33:19;;;;;;;5.82;2.88;;;;;;;1.57;91.54;98935.91;5080559;28;20024;-79
2021/12/10 07:35:45;;;;;;;8.43;2.90;;;;;;;1.58;91.98;98936.78;5085583;28;20036;-79
2021/12/10 07:38:11;;;;;;;6.18;2.53;;;;;;;1.60;91.80;98929.69;5087452;28;20059;-79
2021/12/10 07:40:37;;;;;;;8.52;2.50;;;;;;;1.57;91.93;98924.59;5085857;28;20068;-80
2021/12/10 07:43:05;;;;;;;9.68;3.13;;;;;;;1.55;91.77;98921.16;5081427;28;20358;-78
2021/12/10 07:45:30;;;;;;;7.70;2.90;;;;;;;1.57;91.23;98924.59;5087306;28;20103;-77
2021/12/10 07:47:58;;;;;;;9.05;2.95;;;;;;;1.60;91.34;98922.69;5084692;28;20111;-79
2021/12/10 07:50:27;;;;;;;8.35;3.15;;;;;;;1.64;91.03;98929.50;5080014;28;20031;-78
2021/12/10 07:52:56;;;;;;;10.75;3.15;;;;;;;1.65;91.56;98925.94;5086513;28;20055;-78
2021/12/10 07:55:25;;;;;;;8.32;2.83;;;;;;;1.62;91.31;98922.59;5076980;28;20119;-78
2021/12/10 07:57:51;;;;;;;6.82;3.65;;;;;;;1.64;91.45;98926.88;5069954;28;20032;-78
2021/12/10 08:00:20;;;;;;;6.90;2.80;;;;;;;1.65;91.40;98932.97;5083477;28;20016;-78
2021/12/10 08:02:46;;;;;;;7.60;2.92;;;;;;;1.65;90.91;98930.34;5082463;28;20077;-78
2021/12/10 08:05:14;;;;;;;7.32;3.17;;;;;;;1.64;91.57;98931.25;5079766;28;20485;-78
2021/12/10 08:07:40;;;;;;;8.93;3.22;;;;;;;1.67;91.23;98925.84;5080707;28;20398;-78
2021/12/10 08:10:08;;;;;;;8.73;3.85;;;;;;;1.68;91.24;98933.69;5083724;28;20039;-78
2021/12/10 08:12:33;;;;;;;10.05;2.90;;;;;;;1.68;90.74;98940.69;5081353;28;20027;-78
2021/12/10 08:14:58;;;;;;;13.25;3.47;;;;;;;1.67;90.78;98931.09;5083385;28;20028;-79
2021/12/10 08:17:24;;;;;;;10.73;3.15;;;;;;;1.64;90.97;98926.03;5070892;28;20023;-79
2021/12/10 08:19:50;;;;;;;7.60;2.70;;;;;;;1.74;90.90;98940.41;5070965;28;20049;-79
2021/12/10 08:22:16;;;;;;;9.63;3.10;;;;;;;1.76;90.44;98941.22;5079971;28;20473;-77
2021/12/10 08:24:41;;;;;;;11.77;3.40;;;;;;;1.74;91.16;98929.91;5083692;28;20052;-77
2021/12/10 08:27:07;;;;;;;11.45;4.25;;;;;;;1.81;90.20;98939.22;5080050;28;20507;-77
2021/12/10 08:29:33;;;;;;;11.02;3.58;;;;;;;1.83;90.96;98944.38;5087215;28;20076;-77
2021/12/10 08:31:59;;;;;;;8.57;3.13;;;;;;;1.81;90.08;98941.84;5083336;28;20024;-78
2021/12/10 08:34:24;;;;;;;6.45;3.15;;;;;;;1.84;90.28;98935.59;5074410;28;20024;-78
2021/12/10 08:36:50;;;;;;;11.05;3.83;;;;;;;1.77;90.68;98936.81;5076492;28;20378;-78
2021/12/10 08:39:16;;;;;;;10.05;3.72;;;;;;;1.77;91.09;98935.03;5078725;28;20024;-77
2021/12/10 08:41:41;;;;;;;11.60;3.90;;;;;;;1.79;91.37;98935.78;5080525;28;20065;-78
2021/12/10 08:44:09;;;;;;;10.13;3.75;;;;;;;1.81;91.62;98943.63;5087411;28;20556;-77
2021/12/10 08:46:35;;;;;;;7.63;3.95;;;;;;;1.82;91.38;98940.91;5087195;28;20032;-77
2021/12/10 08:49:01;;;;;;;8.48;3.88;;;;;;;1.78;91.50;98938.50;5091004;28;20028;-77
2021/12/10 08:51:35;;;;;;;9.13;3.70;;;;;;;1.85;91.24;98945.19;5089535;28;20038;-77
2021/12/10 08:54:01;;;;;;;8.27;4.15;;;;;;;1.81;91.09;98936.59;5091600;28;20024;-78
2021/12/10 08:56:27;;;;;;;8.38;3.60;;;;;;;1.86;90.96;98939.84;5077215;28;20082;-78
2021/12/10 08:58:52;;;;;;;10.32;3.55;;;;;;;1.90;91.03;98936.16;5079386;28;20497;-78
2021/12/10 09:01:22;;;;;;;8.35;4.03;;;;;;;1.94;90.74;98934.25;5078983;28;20028;-78
2021/12/10 09:03:51;;;;;;;11.60;4.10;;;;;;;2.02;90.15;98947.03;5087459;28;20032;-78
2021/12/10 09:06:19;;;;;;;5.70;3.63;;;;;;;2.07;89.84;98945.03;5090335;28;20533;-78
2021/12/10 09:08:44;;;;;;;9.95;4.10;;;;;;;2.11;89.60;98949.22;5090974;28;20031;-78
2021/12/10 09:11:11;;;;;;;11.18;4.10;;;;;;;2.14;89.98;98941.22;5084001;28;20040;-78
2021/12/10 09:13:36;;;;;;;8.18;4.15;;;;;;;2.14;89.87;98935.97;5078576;28;20062;-79
2021/12/10 09:16:06;;;;;;;12.43;4.28;;;;;;;2.20;89.57;98948.78;5071565;28;20047;-78
2021/12/10 09:18:33;;;;;;;12.65;4.57;;;;;;;2.24;89.76;98951.19;5085138;28;20050;-79
2021/12/10 09:21:02;;;;;;;7.97;4.45;;;;;;;2.28;89.83;98951.91;5084910;28;20137;-79
2021/12/10 09:23:28;;;;;;;12.15;5.53;;;;;;;2.32;88.93;98952.63;5086980;28;20469;-79
2021/12/10 09:25:58;;;;;;;9.10;4.47;;;;;;;2.35;88.71;98955.94;5077437;28;20255;-79
2021/12/10 09:28:25;;;;;;;7.72;4.40;;;;;;;2.38;88.69;98950.56;5083066;28;20032;-77
2021/12/10 09:30:53;;;;;;;7.95;4.35;;;;;;;2.41;88.42;98949.53;5096211;28;20448;-79
2021/12/10 09:33:20;;;;;;;11.93;4.97;;;;;;;2.46;87.84;98952.78;5080296;28;20059;-78
2021/12/10 09:35:46;;;;;;;7.95;3.80;;;;;;;2.45;88.13;98951.94;5079846;28;20456;-78
2021/12/10 09:38:12;;;;;;;9.27;5.07;;;;;;;2.49;87.54;98957.91;5077408;28;20024;-79
2021/12/10 09:40:42;;;;;;;10.85;4.47;;;;;;;2.53;87.83;98954.22;5078021;28;20032;-79
2021/12/10 09:43:11;;;;;;;8.75;4.15;;;;;;;2.56;86.90;98963.72;5078634;28;20052;-79
2021/12/10 09:45:40;;;;;;;8.57;4.68;;;;;;;2.60;87.26;98967.91;5087910;28;20040;-78
2021/12/10 09:48:08;;;;;;;8.57;4.70;;;;;;;2.64;86.52;98969.47;5089610;28;20375;-79
2021/12/10 09:50:38;;;;;;;12.13;4.22;;;;;;;2.64;86.54;98962.44;5086723;28;20058;-79
2021/12/10 09:53:05;;;;;;;10.32;3.83;;;;;;;2.60;85.39;98949.53;5073874;28;20036;-80
2021/12/10 09:55:30;;;;;;;11.10;4.38;;;;;;;2.67;86.06;98957.00;5100487;28;20028;-79
2021/12/10 09:57:56;;;;;;;7.43;3.80;;;;;;;2.70;85.19;98954.25;5074670;28;20029;-80
2021/12/10 10:00:36;;;;;;;11.43;4.20;;;;;;;2.74;86.12;98950.53;5083101;28;20064;-79
2021/12/10 10:03:03;;;;;;;6.97;3.72;;;;;;;2.78;84.72;98948.63;5087334;28;20027;-80
2021/12/10 10:05:30;;;;;;;7.97;3.88;;;;;;;2.82;84.28;98955.41;5085930;28;20116;-83
2021/12/10 10:07:59;;;;;;;7.40;4.00;;;;;;;2.81;83.97;98945.00;5089644;28;20461;-80
2021/12/10 10:10:26;;;;;;;10.48;3.88;;;;;;;2.84;84.27;98944.81;5087922;28;20063;-85
2021/12/10 10:12:55;;;;;;;8.52;3.60;;;;;;;2.89;84.07;98950.72;5072404;28;20025;-80
2021/12/10 10:15:25;;;;;;;8.50;3.67;;;;;;;2.87;84.08;98953.41;5072021;28;20035;-78
2021/12/10 10:17:51;;;;;;;10.80;4.72;;;;;;;2.89;84.07;98951.56;5086163;28;20027;-78
2021/12/10 10:20:19;;;;;;;5.18;3.60;;;;;;;2.94;83.36;98954.81;5091567;28;20097;-79
2021/12/10 10:22:45;;;;;;;9.30;3.88;;;;;;;2.96;84.11;98952.09;5089361;28;20028;-80
2021/12/10 10:25:11;;;;;;;9.70;3.75;;;;;;;2.96;83.68;98952.94;5085034;28;20548;-79
2021/12/10 10:27:40;;;;;;;7.00;3.50;;;;;;;2.99;84.00;98952.81;5080013;28;20016;-80
2021/12/10 10:30:30;;;;;;;11.27;3.90;;;;;;;3.04;84.38;98959.59;5086203;28;20111;-80
2021/12/10 10:33:01;;;;;;;9.15;4.05;;;;;;;2.99;83.39;98955.44;5076864;28;20036;-78
2021/12/10 10:35:34;;;;;;;10.48;3.33;;;;;;;2.99;83.22;98963.31;5084504;28;20028;-79
2021/12/10 10:38:00;;;;;;;10.87;3.73;;;;;;;3.00;82.68;98967.63;5084966;28;20099;-79
2021/12/10 10:40:32;;;;;;;6.68;3.63;;;;;;;3.02;82.86;98966.72;5076652;28;20064;-77
2021/12/10 10:42:58;;;;;;;7.55;3.63;;;;;;;3.03;83.29;98960.53;5084768;28;20025;-78
2021/12/10 10:45:28;;;;;;;6.18;3.63;;;;;;;3.10;83.89;98967.19;5082558;28;20085;-78
2021/12/10 10:47:56;;;;;;;9.80;4.22;;;;;;;3.13;83.09;98962.63;5077645;28;20443;-78
2021/12/10 10:50:26;;;;;;;7.53;3.50;;;;;;;3.19;82.65;98964.94;5072309;28;20192;-77
2021/12/10 10:53:01;;;;;;;6.43;3.30;;;;;;;3.21;82.66;98964.84;5073501;28;20037;-77
2021/12/10 10:55:34;;;;;;;7.10;3.28;;;;;;;3.22;82.29;98966.59;5085306;28;20032;-77
2021/12/10 10:58:04;;;;;;;9.67;3.53;;;;;;;3.19;82.82;98970.22;5081335;28;20081;-77
2021/12/10 11:00:50;;;;;;;11.70;3.60;;;;;;;3.19;82.81;98962.31;5088009;28;20028;-77
2021/12/10 11:03:22;;;;;;;10.60;3.40;;;;;;;3.19;83.77;98964.94;5084877;28;20083;-79
2021/12/10 11:05:51;;;;;;;10.93;3.40;;;;;;;3.24;83.00;98965.56;5076662;28;20427;-77
2021/12/10 11:08:31;;;;;;;8.70;3.15;;;;;;;3.28;83.63;98962.78;5082029;28;20489;-78
2021/12/10 11:11:06;;;;;;;6.32;3.50;;;;;;;3.25;82.80;98976.91;5086742;28;20115;-78
2021/12/10 11:13:35;;;;;;;7.68;3.65;;;;;;;3.22;82.89;98971.84;5090405;28;20024;-77
2021/12/10 11:16:07;;;;;;;5.88;3.00;;;;;;;3.25;83.10;98979.56;5081653;28;20465;-78
2021/12/10 11:18:54;;;;;;;6.60;3.38;;;;;;;3.20;83.63;98987.66;5076015;28;20059;-78
2021/12/10 11:21:40;;;;;;;6.82;2.90;;;;;;;3.18;83.80;98984.28;5082983;28;20036;-78
2021/12/10 11:24:15;;;;;;;6.18;3.40;;;;;;;3.17;84.14;98985.19;5080394;28;20111;-78
2021/12/10 11:26:47;;;;;;;11.00;4.13;;;;;;;3.16;83.06;98978.25;5079772;28;20032;-78
2021/12/10 11:29:36;;;;;;;10.13;3.78;;;;;;;3.14;84.13;98989.78;5085982;28;20394;-78
2021/12/10 11:32:10;;;;;;;7.10;3.25;;;;;;;3.11;84.54;98979.41;5078619;28;20020;-79
2021/12/10 11:34:51;;;;;;;8.77;3.60;;;;;;;3.07;84.87;98973.44;5070911;28;20046;-79
2021/12/10 11:37:38;;;;;;;10.32;3.25;;;;;;;3.09;84.31;98987.34;5078610;28;20089;-78
2021/12/10 11:40:27;;;;;;;10.90;3.20;;;;;;;3.06;84.40;98998.03;5087449;28;20085;-78
2021/12/10 11:43:01;;;;;;;5.80;3.10;;;;;;;3.04;85.68;98999.03;5061011;28;20063;-78
2021/12/10 11:45:35;;;;;;;8.75;3.83;;;;;;;3.06;85.75;98994.56;5088329;28;20052;-78
2021/12/10 11:48:09;;;;;;;7.57;3.90;;;;;;;3.01;86.21;98981.66;5082523;28;20429;-78
2021/12/10 11:50:40;;;;;;;8.45;3.38;;;;;;;3.03;86.33;98990.28;5086865;28;20046;-79